Time;durP1;ratioP1;P1;durP2;ratioP2;P2;SDS_P1;SDS_P2;PMS_P1;PMS_P2;Temp;Humidity;BMP_temperature;BMP_pressure;BME280_temperature;BME280_humidity;BME280_pressure;Samples;Min_cycle;Max_cycle;Signal;HPM_P1;HPM_P2
2023/09/16 00:01:20;;;;;;;;;;;;;;;21.70;57.68;99964.13;3129580;28;19986;-68
2023/09/16 00:02:52;;;;;;;;;;;;;;;21.65;57.70;99956.59;3135755;28;19928;-68
2023/09/16 00:04:23;;;;;;;;;;;;;;;21.62;57.87;99956.00;3129065;28;19990;-68
2023/09/16 00:05:54;;;;;;;;;;;;;;;21.63;57.68;99958.53;3129090;28;20397;-71
2023/09/16 00:07:26;;;;;;;;;;;;;;;21.62;57.55;99950.72;3132153;28;20078;-71
2023/09/16 00:08:56;;;;;;;;;;;;;;;21.65;57.84;99961.03;3139634;28;20014;-71
2023/09/16 00:10:28;;;;;;;;;;;;;;;21.66;57.76;99957.44;3128918;28;19935;-70
2023/09/16 00:12:00;;;;;;;;;;;;;;;21.66;57.80;99960.09;3125338;28;19929;-70
2023/09/16 00:13:32;;;;;;;;;;;;;;;21.65;57.88;99961.91;3134893;28;19980;-70
2023/09/16 00:15:04;;;;;;;;;;;;;;;21.56;58.01;99954.75;3131269;28;19929;-69
2023/09/16 00:16:35;;;;;;;;;;;;;;;21.58;58.14;99966.88;3128809;28;20334;-69
2023/09/16 00:18:06;;;;;;;;;;;;;;;21.53;58.34;99966.47;3139815;28;19932;-69
2023/09/16 00:19:38;;;;;;;;;;;;;;;21.50;58.47;99966.75;3130994;28;19936;-69
2023/09/16 00:21:10;;;;;;;;;;;;;;;21.49;58.37;99961.56;3128732;28;19928;-69
2023/09/16 00:22:42;;;;;;;;;;;;;;;21.49;58.03;99959.75;3137471;28;20015;-68
2023/09/16 00:24:14;;;;;;;;;;;;;;;21.49;58.27;99950.97;3141364;28;19998;-68
2023/09/16 00:25:46;;;;;;;;;;;;;;;21.48;58.42;99954.59;3133568;28;19970;-68
2023/09/16 00:27:19;;;;;;;;;;;;;;;21.47;58.39;99956.38;3128909;28;20028;-68
2023/09/16 00:28:49;;;;;;;;;;;;;;;21.49;58.44;99950.97;3128729;28;19936;-68
2023/09/16 00:30:21;;;;;;;;;;;;;;;21.52;58.32;99956.00;3124074;28;19929;-68
2023/09/16 00:31:52;;;;;;;;;;;;;;;21.54;58.05;99951.41;3120506;28;19935;-68
2023/09/16 00:33:23;;;;;;;;;;;;;;;21.55;58.04;99966.31;3131876;28;19928;-69
2023/09/16 00:34:55;;;;;;;;;;;;;;;21.57;58.08;99964.38;3134588;28;20310;-69
2023/09/16 00:36:27;;;;;;;;;;;;;;;21.58;58.11;99966.06;3139357;28;19929;-69
2023/09/16 00:37:58;;;;;;;;;;;;;;;21.60;57.97;99966.75;3128492;28;20274;-69
2023/09/16 00:39:31;;;;;;;;;;;;;;;21.64;57.83;99969.97;3128412;28;19935;-69
2023/09/16 00:41:02;;;;;;;;;;;;;;;21.66;57.81;99976.00;3127146;28;19929;-68
2023/09/16 00:42:38;;;;;;;;;;;;;;;21.67;57.68;99970.53;3125661;28;19964;-67
2023/09/16 00:44:08;;;;;;;;;;;;;;;21.68;57.82;99971.38;3128364;28;20430;-68
2023/09/16 00:45:41;;;;;;;;;;;;;;;21.67;57.81;99972.34;3128240;28;20070;-67
2023/09/16 00:47:11;;;;;;;;;;;;;;;21.65;57.87;99969.84;3138120;28;20099;-69
2023/09/16 00:48:45;;;;;;;;;;;;;;;21.66;57.72;99971.53;3140800;28;20406;-68
2023/09/16 00:50:17;;;;;;;;;;;;;;;21.68;57.70;99963.41;3140954;28;20441;-67
2023/09/16 00:51:48;;;;;;;;;;;;;;;21.68;57.67;99966.94;3132428;28;19928;-68
2023/09/16 00:53:20;;;;;;;;;;;;;;;21.68;57.81;99971.38;3127487;28;19986;-68
2023/09/16 00:54:53;;;;;;;;;;;;;;;21.61;57.75;99960.47;3128362;28;19935;-67
2023/09/16 00:56:27;;;;;;;;;;;;;;;21.64;58.00;99969.97;3127982;28;20019;-66
2023/09/16 00:58:01;;;;;;;;;;;;;;;21.64;57.99;99964.69;3133579;28;19929;-67
2023/09/16 00:59:32;;;;;;;;;;;;;;;21.61;57.95;99959.66;3139508;28;20014;-67
2023/09/16 01:01:03;;;;;;;;;;;;;;;21.60;58.26;99965.94;3128264;28;20035;-67
2023/09/16 01:02:34;;;;;;;;;;;;;;;21.57;58.14;99959.91;3128323;28;19933;-67
2023/09/16 01:04:07;;;;;;;;;;;;;;;21.55;58.19;99967.16;3128375;28;20539;-67
2023/09/16 01:05:38;;;;;;;;;;;;;;;21.52;58.46;99964.78;3128412;28;20047;-67
2023/09/16 01:07:09;;;;;;;;;;;;;;;21.44;59.16;99974.38;3129435;28;20065;-67
2023/09/16 01:08:40;;;;;;;;;;;;;;;21.33;59.51;99975.31;3140882;28;19928;-67
2023/09/16 01:10:13;;;;;;;;;;;;;;;21.25;60.42;99975.13;3137116;28;20366;-67
2023/09/16 01:11:43;;;;;;;;;;;;;;;21.18;60.80;99982.78;3124415;28;19929;-67
2023/09/16 01:13:16;;;;;;;;;;;;;;;21.12;60.99;99986.78;3134916;28;19928;-68
2023/09/16 01:14:47;;;;;;;;;;;;;;;21.06;61.64;99986.44;3138664;28;20182;-67
2023/09/16 01:16:24;;;;;;;;;;;;;;;20.98;61.85;99991.59;3128187;28;20495;-68
2023/09/16 01:18:05;;;;;;;;;;;;;;;20.93;62.20;99999.91;3128366;28;19933;-67
2023/09/16 01:19:42;;;;;;;;;;;;;;;20.88;62.36;100007.41;3138235;28;20077;-67
2023/09/16 01:21:13;;;;;;;;;;;;;;;20.82;62.64;100014.06;3140669;28;20396;-68
2023/09/16 01:22:45;;;;;;;;;;;;;;;20.75;63.39;100015.53;3131765;28;20136;-68
2023/09/16 01:24:17;;;;;;;;;;;;;;;20.68;63.64;100020.53;3136168;28;20391;-68
2023/09/16 01:25:50;;;;;;;;;;;;;;;20.64;63.92;100023.53;3124445;28;19932;-68
2023/09/16 01:27:21;;;;;;;;;;;;;;;20.62;63.68;100021.03;3135622;28;19928;-68
2023/09/16 01:28:52;;;;;;;;;;;;;;;20.62;63.63;100023.69;3134181;28;20321;-68
2023/09/16 01:30:25;;;;;;;;;;;;;;;20.63;63.34;100017.41;3125343;28;19935;-68
2023/09/16 01:32:00;;;;;;;;;;;;;;;20.63;63.45;100020.06;3133360;28;19928;-68
2023/09/16 01:33:34;;;;;;;;;;;;;;;20.65;63.04;100017.31;3138204;28;19928;-68
2023/09/16 01:35:07;;;;;;;;;;;;;;;20.65;63.04;100019.94;3128164;28;19929;-68
2023/09/16 01:36:38;;;;;;;;;;;;;;;20.61;62.97;100019.34;3128382;28;19933;-68
2023/09/16 01:38:13;;;;;;;;;;;;;;;20.64;63.11;100027.03;3131120;28;19928;-67
2023/09/16 01:39:45;;;;;;;;;;;;;;;20.63;63.15;100027.16;3124570;28;20144;-67
2023/09/16 01:41:19;;;;;;;;;;;;;;;20.62;63.24;100028.16;3126573;28;20398;-67
2023/09/16 01:42:50;;;;;;;;;;;;;;;20.65;62.93;100036.66;3120013;28;20778;-68
2023/09/16 01:44:21;;;;;;;;;;;;;;;20.71;62.65;100039.75;3127875;28;20019;-68
2023/09/16 01:45:53;;;;;;;;;;;;;;;20.74;62.40;100045.63;3127964;28;19928;-68
2023/09/16 01:47:23;;;;;;;;;;;;;;;20.76;62.43;100046.31;3140035;28;20033;-67
2023/09/16 01:48:55;;;;;;;;;;;;;;;20.75;62.43;100047.31;3129079;28;20007;-67
2023/09/16 01:50:26;;;;;;;;;;;;;;;20.73;62.58;100043.94;3128012;28;19972;-67
2023/09/16 01:51:57;;;;;;;;;;;;;;;20.74;62.54;100037.69;3127577;28;19928;-67
2023/09/16 01:53:28;;;;;;;;;;;;;;;20.70;62.72;100040.72;3126874;28;19990;-67
2023/09/16 01:54:59;;;;;;;;;;;;;;;20.68;62.95;100040.84;3127725;28;20434;-68
2023/09/16 01:56:31;;;;;;;;;;;;;;;20.68;63.02;100038.22;3127326;28;19939;-68
2023/09/16 01:58:03;;;;;;;;;;;;;;;20.66;63.25;100038.31;3133885;28;19928;-69
2023/09/16 01:59:34;;;;;;;;;;;;;;;20.68;63.00;100040.84;3138196;28;20291;-68
2023/09/16 02:01:08;;;;;;;;;;;;;;;20.71;62.97;100035.31;3121277;28;20078;-68
2023/09/16 02:02:39;;;;;;;;;;;;;;;20.71;62.97;100031.81;3131977;28;19932;-68
2023/09/16 02:04:10;;;;;;;;;;;;;;;20.71;62.86;100029.19;3136551;28;20069;-68
2023/09/16 02:05:42;;;;;;;;;;;;;;;20.73;62.84;100030.69;3130462;28;19929;-68
2023/09/16 02:07:13;;;;;;;;;;;;;;;20.74;62.76;100029.75;3134768;28;19928;-69
2023/09/16 02:08:44;;;;;;;;;;;;;;;20.76;62.66;100030.44;3134988;28;19936;-68
2023/09/16 02:10:15;;;;;;;;;;;;;;;20.78;62.60;100028.53;3128157;28;19929;-67
2023/09/16 02:11:48;;;;;;;;;;;;;;;20.78;62.84;100030.34;3129261;28;20509;-67
2023/09/16 02:13:18;;;;;;;;;;;;;;;20.78;62.97;100031.16;3126725;28;19932;-66
2023/09/16 02:14:51;;;;;;;;;;;;;;;20.76;63.22;100017.22;3137413;28;19940;-67
2023/09/16 02:16:22;;;;;;;;;;;;;;;20.76;63.16;100022.50;3126162;28;20427;-67
2023/09/16 02:17:53;;;;;;;;;;;;;;;20.78;63.14;100022.41;3137099;28;19964;-69
2023/09/16 02:19:25;;;;;;;;;;;;;;;20.80;62.85;100017.81;3140151;28;19981;-69
2023/09/16 02:20:57;;;;;;;;;;;;;;;20.82;62.81;100013.22;3131390;28;20455;-68
2023/09/16 02:22:27;;;;;;;;;;;;;;;20.84;62.72;100014.75;3134801;28;19928;-68
2023/09/16 02:23:59;;;;;;;;;;;;;;;20.85;62.78;100007.66;3129375;28;19933;-70
2023/09/16 02:25:32;;;;;;;;;;;;;;;20.85;62.93;100012.94;3133257;28;20635;-70
2023/09/16 02:27:05;;;;;;;;;;;;;;;20.81;63.41;100015.03;3140104;28;20448;-70
2023/09/16 02:28:36;;;;;;;;;;;;;;;20.77;63.59;100013.63;3139865;28;20367;-69
2023/09/16 02:30:08;;;;;;;;;;;;;;;20.75;63.89;100018.19;3131234;28;19940;-67
2023/09/16 02:31:40;;;;;;;;;;;;;;;20.73;64.02;100016.63;3118885;28;20417;-67
2023/09/16 02:33:11;;;;;;;;;;;;;;;20.71;64.03;100014.13;3130530;28;20015;-66
2023/09/16 02:34:42;;;;;;;;;;;;;;;20.71;64.05;100010.66;3132615;28;19940;-65
2023/09/16 02:36:13;;;;;;;;;;;;;;;20.74;63.99;100013.03;3127530;28;19939;-66
2023/09/16 02:37:45;;;;;;;;;;;;;;;20.77;63.77;100010.97;3127223;28;19929;-66
2023/09/16 02:39:15;;;;;;;;;;;;;;;20.79;63.76;100016.13;3127575;28;19929;-66
2023/09/16 02:40:47;;;;;;;;;;;;;;;20.80;63.42;100010.72;3139451;28;20457;-68
2023/09/16 02:42:19;;;;;;;;;;;;;;;20.83;63.29;100014.91;3122399;28;20444;-69
2023/09/16 02:43:50;;;;;;;;;;;;;;;20.84;63.27;100013.94;3127246;28;20386;-66
2023/09/16 02:45:21;;;;;;;;;;;;;;;20.85;63.44;100012.94;3127238;28;19928;-69
2023/09/16 02:46:53;;;;;;;;;;;;;;;20.83;63.47;100012.25;3127531;28;20340;-66
2023/09/16 02:48:24;;;;;;;;;;;;;;;20.85;63.45;100012.94;3127166;28;20104;-66
2023/09/16 02:49:56;;;;;;;;;;;;;;;20.85;63.28;100011.16;3127325;28;20402;-67
2023/09/16 02:51:26;;;;;;;;;;;;;;;20.86;63.39;100006.72;3134032;28;19955;-66
2023/09/16 02:52:58;;;;;;;;;;;;;;;20.88;63.40;100007.41;3123421;28;19983;-67
2023/09/16 02:54:28;;;;;;;;;;;;;;;20.90;63.22;100005.47;3124716;28;19928;-67
2023/09/16 02:56:00;;;;;;;;;;;;;;;20.92;62.99;100000.91;3139916;28;20093;-67
2023/09/16 02:57:34;;;;;;;;;;;;;;;20.94;62.93;100014.84;3131603;28;20288;-67
2023/09/16 02:59:05;;;;;;;;;;;;;;;20.97;62.89;99995.19;3138920;28;19930;-68
2023/09/16 03:00:36;;;;;;;;;;;;;;;20.98;62.92;100010.97;3127442;28;19928;-68
2023/09/16 03:02:08;;;;;;;;;;;;;;;20.99;62.83;100007.31;3139685;28;20681;-68
2023/09/16 03:03:40;;;;;;;;;;;;;;;21.01;62.71;100012.50;3127815;28;19940;-68
2023/09/16 03:05:11;;;;;;;;;;;;;;;21.02;62.56;100007.06;3127226;28;20491;-68
2023/09/16 03:06:42;;;;;;;;;;;;;;;21.03;62.47;100002.59;3134577;28;20006;-68
2023/09/16 03:08:14;;;;;;;;;;;;;;;21.03;62.50;100013.19;3136580;28;20335;-67
2023/09/16 03:09:45;;;;;;;;;;;;;;;21.00;62.87;100014.31;3131877;28;20024;-67
2023/09/16 03:11:16;;;;;;;;;;;;;;;20.97;62.96;100006.66;3129794;28;19928;-67
2023/09/16 03:12:49;;;;;;;;;;;;;;;20.91;63.48;100004.50;3125576;28;19929;-67
2023/09/16 03:14:19;;;;;;;;;;;;;;;20.88;63.65;100004.75;3129597;28;19944;-67
2023/09/16 03:16:11;;;;;;;;;;;;;;;20.88;63.54;100004.75;3134516;28;19928;-67
2023/09/16 03:17:41;;;;;;;;;;;;;;;20.91;63.43;100001.84;3133623;28;19929;-68
2023/09/16 03:19:13;;;;;;;;;;;;;;;20.94;63.28;100006.91;3135987;28;19929;-67
2023/09/16 03:20:44;;;;;;;;;;;;;;;20.96;63.35;100006.75;3142358;28;20277;-68
2023/09/16 03:22:16;;;;;;;;;;;;;;;20.97;63.13;99997.84;3137542;28;20001;-68
2023/09/16 03:23:47;;;;;;;;;;;;;;;20.98;63.22;99996.88;3139968;28;19925;-67
2023/09/16 03:25:18;;;;;;;;;;;;;;;20.98;63.18;99995.06;3138221;28;20321;-69
2023/09/16 03:26:49;;;;;;;;;;;;;;;21.00;63.17;99993.13;3140156;28;19935;-69
2023/09/16 03:28:21;;;;;;;;;;;;;;;21.03;63.12;99995.53;3147122;28;20252;-69
2023/09/16 03:29:53;;;;;;;;;;;;;;;21.03;63.01;99992.88;3145539;28;19925;-70
2023/09/16 03:31:23;;;;;;;;;;;;;;;21.01;63.15;99993.97;3127762;28;20027;-69
2023/09/16 03:32:55;;;;;;;;;;;;;;;21.00;63.29;100001.09;3134579;28;20034;-70
2023/09/16 03:34:25;;;;;;;;;;;;;;;21.00;63.10;100000.22;3141319;28;19929;-70
2023/09/16 03:35:57;;;;;;;;;;;;;;;21.00;63.16;100009.03;3134913;28;19924;-69
2023/09/16 03:37:28;;;;;;;;;;;;;;;21.05;63.23;100004.16;3144727;28;19929;-69
2023/09/16 03:38:59;;;;;;;;;;;;;;;21.07;62.90;100010.16;3147357;28;19929;-68
2023/09/16 03:40:32;;;;;;;;;;;;;;;21.09;62.91;100004.75;3138518;28;20019;-69
2023/09/16 03:42:03;;;;;;;;;;;;;;;21.12;62.82;100015.09;3138139;28;19924;-69
2023/09/16 03:43:35;;;;;;;;;;;;;;;21.13;62.89;100009.63;3132096;28;19928;-70
2023/09/16 03:45:06;;;;;;;;;;;;;;;21.16;62.86;100013.00;3134309;28;19924;-70
2023/09/16 03:46:39;;;;;;;;;;;;;;;21.17;62.60;100007.56;3134521;28;20398;-67
2023/09/16 03:48:09;;;;;;;;;;;;;;;21.17;62.88;100006.72;3139276;28;19979;-69
2023/09/16 03:49:41;;;;;;;;;;;;;;;21.14;63.26;100006.00;3146869;28;19928;-67
2023/09/16 03:51:12;;;;;;;;;;;;;;;21.12;63.06;100013.25;3139539;28;19925;-68
2023/09/16 03:52:43;;;;;;;;;;;;;;;21.10;63.06;100012.56;3133541;28;19933;-67
2023/09/16 03:54:14;;;;;;;;;;;;;;;21.06;63.16;100021.75;3137591;28;19928;-67
2023/09/16 03:55:46;;;;;;;;;;;;;;;21.01;63.35;100010.69;3137988;28;19929;-67
2023/09/16 03:57:16;;;;;;;;;;;;;;;21.00;63.50;100005.50;3141662;28;19934;-67
2023/09/16 03:58:49;;;;;;;;;;;;;;;20.97;63.43;100008.44;3147014;28;19924;-66
2023/09/16 04:00:20;;;;;;;;;;;;;;;20.92;63.79;100011.47;3134749;28;20331;-68
2023/09/16 04:01:51;;;;;;;;;;;;;;;20.87;64.02;100013.66;3136556;28;19944;-67
2023/09/16 04:03:22;;;;;;;;;;;;;;;20.85;63.83;100015.59;3134486;28;19925;-68
2023/09/16 04:04:53;;;;;;;;;;;;;;;20.82;63.51;100014.06;3134342;28;19986;-69
2023/09/16 04:06:26;;;;;;;;;;;;;;;20.85;63.73;100018.25;3136711;28;19924;-68
2023/09/16 04:07:56;;;;;;;;;;;;;;;20.85;63.79;100010.31;3134111;28;19957;-69
2023/09/16 04:09:28;;;;;;;;;;;;;;;20.85;63.81;100019.13;3134250;28;20632;-68
2023/09/16 04:10:58;;;;;;;;;;;;;;;20.85;63.81;100016.47;3134619;28;19971;-68
2023/09/16 04:12:30;;;;;;;;;;;;;;;20.86;63.74;100031.38;3131637;28;19929;-68
2023/09/16 04:14:02;;;;;;;;;;;;;;;20.86;63.67;100027.88;3131008;28;19924;-68
2023/09/16 04:15:33;;;;;;;;;;;;;;;20.87;63.49;100030.38;3132228;28;20408;-68
2023/09/16 04:17:04;;;;;;;;;;;;;;;20.89;63.31;100036.41;3138430;28;20352;-68
2023/09/16 04:18:36;;;;;;;;;;;;;;;20.89;63.42;100031.09;3134888;28;19933;-69
2023/09/16 04:20:07;;;;;;;;;;;;;;;20.91;63.37;100036.25;3133821;28;20336;-68
2023/09/16 04:21:39;;;;;;;;;;;;;;;20.92;63.42;100043.25;3134466;28;20402;-69
2023/09/16 04:23:13;;;;;;;;;;;;;;;20.92;63.31;100040.59;3135896;28;19924;-67
2023/09/16 04:24:44;;;;;;;;;;;;;;;20.88;63.51;100042.66;3134188;28;20071;-68
2023/09/16 04:26:16;;;;;;;;;;;;;;;20.85;63.88;100042.06;3133973;28;19935;-68
2023/09/16 04:27:46;;;;;;;;;;;;;;;20.84;63.94;100040.41;3134297;28;19932;-67
2023/09/16 04:29:20;;;;;;;;;;;;;;;20.84;63.97;100033.28;3133940;28;20414;-69
2023/09/16 04:30:51;;;;;;;;;;;;;;;20.86;63.73;100035.81;3135403;28;19928;-70
2023/09/16 04:32:22;;;;;;;;;;;;;;;20.87;63.62;100045.44;3136949;28;20019;-74
2023/09/16 04:33:53;;;;;;;;;;;;;;;20.87;63.52;100034.84;3145502;28;19986;-69
2023/09/16 04:35:24;;;;;;;;;;;;;;;20.88;63.59;100042.66;3144839;28;19924;-68
2023/09/16 04:36:55;;;;;;;;;;;;;;;20.92;63.39;100043.25;3137234;28;19925;-73
2023/09/16 04:38:28;;;;;;;;;;;;;;;20.95;63.54;100040.34;3136645;28;19978;-67
2023/09/16 04:40:00;;;;;;;;;;;;;;;21.00;63.28;100032.00;3133739;28;20374;-66
2023/09/16 04:41:31;;;;;;;;;;;;;;;21.03;63.20;100037.88;3133981;28;19986;-65
2023/09/16 04:43:03;;;;;;;;;;;;;;;21.10;63.17;100033.72;3130868;28;19978;-69
2023/09/16 04:44:38;;;;;;;;;;;;;;;21.11;63.11;100038.06;3134357;28;20310;-69
2023/09/16 04:46:09;;;;;;;;;;;;;;;21.13;62.99;100033.47;3132022;28;20036;-68
2023/09/16 04:47:41;;;;;;;;;;;;;;;21.18;62.86;100037.53;3133682;28;19928;-69
2023/09/16 04:49:11;;;;;;;;;;;;;;;21.22;62.92;100029.19;3133373;28;19924;-69
2023/09/16 04:50:43;;;;;;;;;;;;;;;21.23;62.83;100028.22;3140793;28;19931;-71
2023/09/16 04:52:15;;;;;;;;;;;;;;;21.22;63.00;100033.66;3139979;28;19925;-68
2023/09/16 04:53:45;;;;;;;;;;;;;;;21.22;63.04;100036.31;3132092;28;20005;-70
2023/09/16 04:55:17;;;;;;;;;;;;;;;21.23;62.83;100032.69;3141504;28;20307;-70
2023/09/16 04:56:48;;;;;;;;;;;;;;;21.24;62.75;100035.22;3133759;28;20020;-69
2023/09/16 04:58:21;;;;;;;;;;;;;;;21.25;62.98;100036.03;3141702;28;19924;-69
2023/09/16 04:59:53;;;;;;;;;;;;;;;21.24;63.07;100032.56;3141641;28;20019;-72
2023/09/16 05:01:26;;;;;;;;;;;;;;;21.21;63.22;100035.47;3140222;28;20457;-72
2023/09/16 05:02:57;;;;;;;;;;;;;;;21.19;63.45;100039.22;3139834;28;19924;-75
2023/09/16 05:04:30;;;;;;;;;;;;;;;21.17;63.63;100041.97;3133672;28;20425;-75
2023/09/16 05:06:02;;;;;;;;;;;;;;;21.14;63.68;100043.09;3133463;28;19933;-75
2023/09/16 05:07:33;;;;;;;;;;;;;;;21.13;64.06;100045.88;3134617;28;19924;-75
2023/09/16 05:09:04;;;;;;;;;;;;;;;21.12;63.89;100047.69;3141359;28;19928;-74
2023/09/16 05:10:35;;;;;;;;;;;;;;;21.14;63.76;100051.03;3134254;28;19928;-79
2023/09/16 05:12:06;;;;;;;;;;;;;;;21.18;63.66;100046.34;3140602;28;19924;-76
2023/09/16 05:13:37;;;;;;;;;;;;;;;21.19;63.64;100048.00;3135221;28;19925;-75
2023/09/16 05:15:10;;;;;;;;;;;;;;;21.17;63.97;100051.75;3133890;28;20369;-73
2023/09/16 05:16:42;;;;;;;;;;;;;;;21.15;64.05;100051.91;3138150;28;20344;-76
2023/09/16 05:18:13;;;;;;;;;;;;;;;21.14;63.92;100053.69;3138877;28;19931;-72
2023/09/16 05:19:44;;;;;;;;;;;;;;;21.16;63.98;100060.66;3130544;28;20325;-75
2023/09/16 05:21:15;;;;;;;;;;;;;;;21.18;63.46;100058.72;3135751;28;19936;-72
2023/09/16 05:22:46;;;;;;;;;;;;;;;21.20;63.67;100059.44;3144276;28;19929;-71
2023/09/16 05:24:17;;;;;;;;;;;;;;;21.21;63.79;100066.38;3136960;28;20377;-78
2023/09/16 05:25:49;;;;;;;;;;;;;;;21.21;63.68;100063.75;3133324;28;20326;-72
2023/09/16 05:27:20;;;;;;;;;;;;;;;21.21;63.97;100061.97;3133063;28;19936;-71
2023/09/16 05:28:52;;;;;;;;;;;;;;;21.20;64.18;100062.91;3136277;28;20433;-71
2023/09/16 05:30:24;;;;;;;;;;;;;;;21.20;64.10;100065.56;3140561;28;20267;-72
2023/09/16 05:31:57;;;;;;;;;;;;;;;21.22;64.15;100068.09;3134663;28;19925;-73
2023/09/16 05:33:28;;;;;;;;;;;;;;;21.22;63.89;100071.56;3134238;28;19929;-72
2023/09/16 05:34:59;;;;;;;;;;;;;;;21.25;63.99;100070.47;3133641;28;19924;-71
2023/09/16 05:36:33;;;;;;;;;;;;;;;21.26;64.05;100072.97;3145700;28;19929;-72
2023/09/16 05:38:04;;;;;;;;;;;;;;;21.25;64.34;100079.25;3133234;28;19936;-70
2023/09/16 05:39:35;;;;;;;;;;;;;;;21.26;64.37;100078.28;3144252;28;20402;-77
2023/09/16 05:41:06;;;;;;;;;;;;;;;21.29;64.17;100078.00;3139751;28;20008;-75
2023/09/16 05:42:37;;;;;;;;;;;;;;;21.33;63.88;100079.44;3136390;28;19924;-80
2023/09/16 05:44:08;;;;;;;;;;;;;;;21.36;63.80;100086.31;3128160;28;20464;-76
2023/09/16 05:45:41;;;;;;;;;;;;;;;21.41;63.57;100080.63;3132628;28;19937;-75
2023/09/16 05:47:13;;;;;;;;;;;;;;;21.45;63.67;100093.47;3135204;28;20409;-71
2023/09/16 05:48:45;;;;;;;;;;;;;;;21.50;63.62;100085.97;3134510;28;19929;-73
2023/09/16 05:50:16;;;;;;;;;;;;;;;21.55;63.39;100083.75;3137708;28;19929;-72
2023/09/16 05:51:47;;;;;;;;;;;;;;;21.61;63.01;100086.84;3134767;28;20011;-71
2023/09/16 05:53:18;;;;;;;;;;;;;;;21.66;62.98;100092.59;3129295;28;19929;-69
2023/09/16 05:54:50;;;;;;;;;;;;;;;21.71;62.79;100095.66;3139919;28;19925;-74
2023/09/16 05:56:20;;;;;;;;;;;;;;;21.74;62.83;100093.63;3141753;28;19981;-68
2023/09/16 05:57:52;;;;;;;;;;;;;;;21.77;62.70;100096.00;3137277;28;20359;-70
2023/09/16 05:59:23;;;;;;;;;;;;;;;21.80;62.64;100094.91;3141530;28;20342;-70
2023/09/16 06:00:56;;;;;;;;;;;;;;;21.84;62.51;100101.59;3128619;28;19932;-72
2023/09/16 06:02:28;;;;;;;;;;;;;;;21.88;62.34;100105.63;3143209;28;20389;-71
2023/09/16 06:03:59;;;;;;;;;;;;;;;21.91;62.08;100097.41;3132544;28;19932;-70
2023/09/16 06:05:30;;;;;;;;;;;;;;;21.94;62.06;100110.41;3133215;28;19954;-70
2023/09/16 06:07:01;;;;;;;;;;;;;;;21.96;62.20;100110.28;3133429;28;19929;-78
2023/09/16 06:08:33;;;;;;;;;;;;;;;21.98;62.01;100117.13;3133033;28;20424;-75
2023/09/16 06:10:04;;;;;;;;;;;;;;;21.99;61.95;100115.31;3132765;28;19929;-78
2023/09/16 06:11:35;;;;;;;;;;;;;;;21.96;61.86;100113.78;3143397;28;20302;-81
2023/09/16 06:13:06;;;;;;;;;;;;;;;21.91;61.98;100115.97;3130522;28;19925;-77
2023/09/16 06:14:37;;;;;;;;;;;;;;;21.89;61.93;100127.69;3139958;28;20446;-70
2023/09/16 06:16:10;;;;;;;;;;;;;;;21.89;61.86;100135.63;3137773;28;19959;-73
2023/09/16 06:17:41;;;;;;;;;;;;;;;21.89;62.11;100136.50;3140829;28;20491;-73
2023/09/16 06:19:12;;;;;;;;;;;;;;;21.87;61.93;100133.13;3132714;28;19925;-67
2023/09/16 06:20:44;;;;;;;;;;;;;;;21.89;61.99;100133.84;3132754;28;19933;-73
2023/09/16 06:22:14;;;;;;;;;;;;;;;21.88;62.16;100134.81;3142032;28;20026;-71
2023/09/16 06:23:46;;;;;;;;;;;;;;;21.85;62.01;100134.25;3132239;28;19925;-72
2023/09/16 06:25:16;;;;;;;;;;;;;;;21.85;62.22;100137.72;3132681;28;20436;-73
2023/09/16 06:26:48;;;;;;;;;;;;;;;21.85;62.25;100147.50;3141630;28;19925;-79
2023/09/16 06:28:20;;;;;;;;;;;;;;;21.83;62.15;100147.66;3144920;28;19948;-73
2023/09/16 06:29:52;;;;;;;;;;;;;;;21.84;62.16;100157.25;3144483;28;20389;-75
2023/09/16 06:31:25;;;;;;;;;;;;;;;21.85;62.31;100156.28;3139388;28;19928;-73
2023/09/16 06:32:57;;;;;;;;;;;;;;;21.87;62.30;100158.81;3139043;28;19932;-73
2023/09/16 06:34:28;;;;;;;;;;;;;;;21.90;62.11;100161.19;3137810;28;20037;-76
2023/09/16 06:35:59;;;;;;;;;;;;;;;21.88;62.42;100157.84;3140264;28;19952;-68
2023/09/16 06:37:30;;;;;;;;;;;;;;;21.83;62.83;100160.03;3135879;28;19924;-76
2023/09/16 06:39:01;;;;;;;;;;;;;;;21.83;63.03;100168.84;3145467;28;19928;-78
2023/09/16 06:40:32;;;;;;;;;;;;;;;21.82;63.06;100172.47;3143242;28;19928;-80
2023/09/16 06:42:04;;;;;;;;;;;;;;;21.78;63.37;100173.72;3131720;28;19935;-71
2023/09/16 06:43:36;;;;;;;;;;;;;;;21.75;63.62;100174.81;3121351;28;19929;-76
2023/09/16 06:45:07;;;;;;;;;;;;;;;21.71;64.01;100183.13;3136829;28;19928;-75
2023/09/16 06:46:43;;;;;;;;;;;;;;;21.68;64.13;100173.66;3135217;28;19929;-69
2023/09/16 06:48:13;;;;;;;;;;;;;;;21.66;64.39;100183.56;3139287;28;19940;-74
2023/09/16 06:49:45;;;;;;;;;;;;;;;21.65;64.37;100183.66;3133620;28;19929;-72
2023/09/16 06:51:16;;;;;;;;;;;;;;;21.66;64.41;100186.19;3135072;28;19925;-75
2023/09/16 06:52:47;;;;;;;;;;;;;;;21.62;64.87;100181.28;3131334;28;20008;-70
2023/09/16 06:54:18;;;;;;;;;;;;;;;21.57;65.06;100181.69;3139748;28;19934;-71
2023/09/16 06:55:49;;;;;;;;;;;;;;;21.55;64.96;100187.09;3138929;28;19936;-74
2023/09/16 06:57:20;;;;;;;;;;;;;;;21.55;65.19;100181.81;3134992;28;20451;-73
2023/09/16 06:58:56;;;;;;;;;;;;;;;21.56;65.30;100193.22;3122793;28;19930;-75
2023/09/16 07:00:27;;;;;;;;;;;;;;;21.52;65.60;100192.66;3132490;28;20365;-71
2023/09/16 07:02:00;;;;;;;;;;;;;;;21.49;65.86;100190.28;3134151;28;19979;-67
2023/09/16 07:03:31;;;;;;;;;;;;;;;21.48;66.11;100193.06;3134757;28;19932;-71
2023/09/16 07:05:02;;;;;;;;;;;;;;;21.45;66.40;100199.47;3145194;28;19928;-75
2023/09/16 07:06:34;;;;;;;;;;;;;;;21.47;66.27;100201.97;3147170;28;20302;-69
2023/09/16 07:08:04;;;;;;;;;;;;;;;21.45;66.29;100203.94;3138972;28;19998;-72
2023/09/16 07:09:36;;;;;;;;;;;;;;;21.38;67.27;100198.28;3134871;28;19925;-72
2023/09/16 07:11:07;;;;;;;;;;;;;;;21.26;68.35;100204.59;3139811;28;20386;-72
2023/09/16 07:12:38;;;;;;;;;;;;;;;21.22;68.29;100203.16;3132191;28;19994;-73
2023/09/16 07:14:09;;;;;;;;;;;;;;;21.22;68.37;100205.81;3133721;28;19924;-74
2023/09/16 07:15:40;;;;;;;;;;;;;;;21.24;68.02;100204.72;3140929;28;20325;-73
2023/09/16 07:17:12;;;;;;;;;;;;;;;21.26;67.75;100210.72;3135567;28;19936;-67
2023/09/16 07:18:44;;;;;;;;;;;;;;;21.27;68.00;100216.88;3135106;28;19929;-75
2023/09/16 07:20:15;;;;;;;;;;;;;;;21.24;68.13;100206.53;3134591;28;19982;-76
2023/09/16 07:21:46;;;;;;;;;;;;;;;21.26;67.99;100212.53;3139324;28;19924;-75
2023/09/16 07:23:17;;;;;;;;;;;;;;;21.27;67.82;100212.41;3134748;28;19925;-71
2023/09/16 07:24:48;;;;;;;;;;;;;;;21.29;67.82;100210.44;3135229;28;19939;-69
2023/09/16 07:26:19;;;;;;;;;;;;;;;21.32;67.74;100214.66;3134644;28;19932;-69
2023/09/16 07:27:50;;;;;;;;;;;;;;;21.33;67.65;100211.06;3139810;28;19929;-72
2023/09/16 07:29:21;;;;;;;;;;;;;;;21.32;67.76;100201.41;3146675;28;19928;-74
2023/09/16 07:30:53;;;;;;;;;;;;;;;21.34;68.11;100210.91;3134694;28;20399;-75
2023/09/16 07:32:25;;;;;;;;;;;;;;;21.34;68.07;100204.78;3134764;28;19925;-73
2023/09/16 07:33:57;;;;;;;;;;;;;;;21.36;68.06;100213.50;3145695;28;19928;-73
2023/09/16 07:35:27;;;;;;;;;;;;;;;21.33;68.03;100219.84;3142341;28;19929;-70
2023/09/16 07:37:01;;;;;;;;;;;;;;;21.33;68.18;100211.06;3136739;28;20539;-74
2023/09/16 07:38:32;;;;;;;;;;;;;;;21.35;68.48;100212.63;3134642;28;19936;-74
2023/09/16 07:40:04;;;;;;;;;;;;;;;21.40;68.25;100204.31;3134569;28;20412;-74
2023/09/16 07:41:35;;;;;;;;;;;;;;;21.43;68.19;100204.03;3135031;28;20009;-73
2023/09/16 07:43:08;;;;;;;;;;;;;;;21.47;67.84;100207.28;3131249;28;19979;-73
2023/09/16 07:44:39;;;;;;;;;;;;;;;21.51;67.94;100224.59;3129997;28;19924;-73
2023/09/16 07:46:10;;;;;;;;;;;;;;;21.54;67.75;100219.06;3134246;28;19925;-73
2023/09/16 07:47:43;;;;;;;;;;;;;;;21.56;67.62;100223.25;3134935;28;19929;-76
2023/09/16 07:49:13;;;;;;;;;;;;;;;21.60;67.47;100230.94;3139583;28;19928;-76
2023/09/16 07:50:45;;;;;;;;;;;;;;;21.62;67.60;100227.16;3147166;28;19930;-74
2023/09/16 07:52:16;;;;;;;;;;;;;;;21.66;67.20;100225.97;3141882;28;19932;-75